createdAt,value
2023-04-27T00:02:08.416Z,99.90
2023-04-27T00:04:37.629Z,99.90
2023-04-27T00:07:05.822Z,99.90
2023-04-27T00:09:33.777Z,99.90
2023-04-27T00:12:01.861Z,99.90
2023-04-27T00:14:29.696Z,99.90
2023-04-27T00:16:59.006Z,99.90
2023-04-27T00:19:26.827Z,99.90
2023-04-27T00:21:54.730Z,99.90
2023-04-27T00:24:22.569Z,99.90
2023-04-27T00:26:50.484Z,99.90
2023-04-27T00:29:18.411Z,99.90
2023-04-27T00:31:46.345Z,99.90
2023-04-27T00:34:15.862Z,99.90
2023-04-27T00:36:43.790Z,99.90
2023-04-27T00:39:12.356Z,99.90
2023-04-27T00:41:41.080Z,99.90
2023-04-27T00:44:09.136Z,99.90
2023-04-27T00:46:37.216Z,99.90
2023-04-27T00:49:05.538Z,99.90
2023-04-27T00:51:34.841Z,99.90
2023-04-27T00:54:02.967Z,99.90
2023-04-27T00:56:31.850Z,99.90
2023-04-27T00:58:59.819Z,99.90
2023-04-27T01:01:27.917Z,99.90
2023-04-27T01:03:56.075Z,99.90
2023-04-27T01:06:24.199Z,99.90
2023-04-27T01:08:53.449Z,99.90
2023-04-27T01:11:22.286Z,99.90
2023-04-27T01:13:50.300Z,99.90
2023-04-27T01:16:18.927Z,99.90
2023-04-27T01:18:48.081Z,99.90
2023-04-27T01:21:15.937Z,99.90
2023-04-27T01:23:45.171Z,99.90
2023-04-27T01:26:16.254Z,99.90
2023-04-27T01:28:44.314Z,99.90
2023-04-27T01:31:12.674Z,99.90
2023-04-27T01:33:41.236Z,99.90
2023-04-27T01:36:10.322Z,99.90
2023-04-27T01:38:38.292Z,99.90
2023-04-27T01:41:09.132Z,99.90
2023-04-27T01:43:37.967Z,99.90
2023-04-27T01:46:10.106Z,99.90
2023-04-27T01:48:38.912Z,99.90
2023-04-27T01:51:07.023Z,99.90
2023-04-27T01:53:35.616Z,99.90
2023-04-27T01:56:03.712Z,99.90
2023-04-27T01:58:35.491Z,99.90
2023-04-27T02:01:04.314Z,99.90
2023-04-27T02:03:32.500Z,99.90
2023-04-27T02:06:00.889Z,99.90
2023-04-27T02:08:28.885Z,99.90
2023-04-27T02:10:56.792Z,99.90
2023-04-27T02:13:24.763Z,99.90
2023-04-27T02:15:55.982Z,99.90
2023-04-27T02:18:24.362Z,99.90
2023-04-27T02:20:52.621Z,99.90
2023-04-27T02:23:20.629Z,99.90
2023-04-27T02:25:48.597Z,99.90
2023-04-27T02:28:16.612Z,99.90
2023-04-27T02:30:46.089Z,99.90
2023-04-27T02:33:15.603Z,99.90
2023-04-27T02:35:43.506Z,99.90
2023-04-27T02:38:11.483Z,99.90
2023-04-27T02:40:39.584Z,99.90
2023-04-27T02:43:08.458Z,99.90
2023-04-27T02:45:38.984Z,99.90
2023-04-27T02:48:07.803Z,99.90
2023-04-27T02:50:41.909Z,99.90
2023-04-27T02:53:09.884Z,99.90
2023-04-27T02:55:38.054Z,99.90
2023-04-27T02:58:06.222Z,99.90
2023-04-27T03:00:34.405Z,99.90
2023-04-27T03:03:02.951Z,99.90
2023-04-27T03:05:31.870Z,99.90
2023-04-27T03:08:01.430Z,99.90
2023-04-27T03:10:29.466Z,99.90
2023-04-27T03:12:57.498Z,99.90
2023-04-27T03:15:25.405Z,99.90
2023-04-27T03:17:53.576Z,99.90
2023-04-27T03:20:23.008Z,99.90
2023-04-27T03:22:50.978Z,99.90
2023-04-27T03:25:22.320Z,99.90
2023-04-27T03:27:50.849Z,99.90
2023-04-27T03:30:18.832Z,99.90
2023-04-27T03:32:47.853Z,99.90
2023-04-27T03:35:16.186Z,99.90
2023-04-27T03:37:46.607Z,99.90
2023-04-27T03:40:15.375Z,99.90
2023-04-27T03:42:44.641Z,99.90
2023-04-27T03:45:13.037Z,99.90
2023-04-27T03:47:41.304Z,99.90
2023-04-27T03:50:10.198Z,99.90
2023-04-27T03:52:38.100Z,99.90
2023-04-27T03:55:07.389Z,99.90
2023-04-27T03:57:35.573Z,99.90
2023-04-27T04:00:11.296Z,99.90
2023-04-27T04:02:40.791Z,99.90
2023-04-27T04:05:09.902Z,99.90
2023-04-27T04:07:38.056Z,99.90
2023-04-27T04:10:07.871Z,99.90
2023-04-27T04:12:35.966Z,99.90
2023-04-27T04:15:05.916Z,99.90
2023-04-27T04:17:34.947Z,99.90
2023-04-27T04:20:08.311Z,99.90
2023-04-27T04:22:36.335Z,99.90
2023-04-27T04:25:04.826Z,99.90
2023-04-27T04:27:33.549Z,99.90
2023-04-27T04:30:01.775Z,99.90
2023-04-27T04:32:31.397Z,99.90
2023-04-27T04:35:01.357Z,99.90
2023-04-27T04:37:30.342Z,99.90
2023-04-27T04:39:58.288Z,99.90
2023-04-27T04:42:27.710Z,99.90
2023-04-27T04:44:55.740Z,99.90
2023-04-27T04:47:23.674Z,99.90
2023-04-27T04:49:54.758Z,99.90
2023-04-27T04:52:22.695Z,99.90
2023-04-27T04:54:52.932Z,99.90
2023-04-27T04:57:22.429Z,99.90
2023-04-27T04:59:50.338Z,99.90
2023-04-27T05:02:18.332Z,99.90
2023-04-27T05:04:46.441Z,99.90
2023-04-27T05:07:20.890Z,99.90
2023-04-27T05:09:51.338Z,99.90
2023-04-27T05:12:19.191Z,99.90
2023-04-27T05:14:47.706Z,99.90
2023-04-27T05:17:15.565Z,99.90
2023-04-27T05:19:43.482Z,99.90
2023-04-27T05:22:11.501Z,99.90
2023-04-27T05:24:41.082Z,99.90
2023-04-27T05:27:09.052Z,99.90
2023-04-27T05:29:36.913Z,99.90
2023-04-27T05:32:05.251Z,99.90
2023-04-27T05:34:33.221Z,99.90
2023-04-27T05:37:01.302Z,99.90
2023-04-27T05:39:29.216Z,99.90
2023-04-27T05:41:58.818Z,99.90
2023-04-27T05:44:29.316Z,99.90
2023-04-27T05:46:57.327Z,99.90
2023-04-27T05:49:25.374Z,99.90
2023-04-27T05:51:53.630Z,99.90
2023-04-27T05:54:21.731Z,99.90
2023-04-27T05:56:50.365Z,99.90
2023-04-27T05:59:19.514Z,99.90
2023-04-27T06:01:47.483Z,99.90
2023-04-27T06:04:15.723Z,99.90
2023-04-27T06:06:44.999Z,99.90
2023-04-27T06:09:13.063Z,99.90
2023-04-27T06:11:41.053Z,99.90
2023-04-27T06:14:09.390Z,99.90
2023-04-27T06:16:38.636Z,99.90
2023-04-27T06:19:06.562Z,99.90
2023-04-27T06:21:35.037Z,99.90
2023-04-27T06:24:03.339Z,99.90
2023-04-27T06:26:31.212Z,99.90
2023-04-27T06:28:59.322Z,99.90
2023-04-27T06:31:27.740Z,99.90
2023-04-27T06:33:57.300Z,99.90
2023-04-27T06:36:26.729Z,99.90
2023-04-27T06:38:56.304Z,99.90
2023-04-27T06:41:24.205Z,99.90
2023-04-27T06:43:52.330Z,99.90
2023-04-27T06:46:21.483Z,99.90
2023-04-27T06:48:49.387Z,99.90
2023-04-27T06:51:18.639Z,99.90
2023-04-27T06:53:46.607Z,99.90
2023-04-27T06:56:14.474Z,99.90
2023-04-27T06:58:42.353Z,99.90
2023-04-27T07:01:10.384Z,99.90
2023-04-27T07:03:38.391Z,99.90
2023-04-27T07:06:06.913Z,99.90
2023-04-27T07:08:37.800Z,99.90
2023-04-27T07:11:06.008Z,99.90
2023-04-27T07:13:33.907Z,99.90
2023-04-27T07:16:01.907Z,99.90
2023-04-27T07:18:29.901Z,99.90
2023-04-27T07:20:58.058Z,99.90
2023-04-27T07:23:26.023Z,99.90
2023-04-27T07:25:55.460Z,99.90
2023-04-27T07:28:23.355Z,99.90
2023-04-27T07:30:51.202Z,99.90
2023-04-27T07:33:19.132Z,99.90
2023-04-27T07:35:47.068Z,99.90
2023-04-27T07:38:14.946Z,99.90
2023-04-27T07:40:44.791Z,99.90
2023-04-27T07:43:15.582Z,99.90
2023-04-27T07:45:44.015Z,99.90
2023-04-27T07:48:12.208Z,99.90
2023-04-27T07:50:40.101Z,99.90
2023-04-27T07:53:08.004Z,99.90
2023-04-27T07:55:36.062Z,99.90
2023-04-27T07:58:03.996Z,99.90
2023-04-27T08:00:33.316Z,99.90
2023-04-27T08:03:01.441Z,99.90
2023-04-27T08:05:29.989Z,99.90
2023-04-27T08:07:58.571Z,99.90
2023-04-27T08:10:26.668Z,99.90
2023-04-27T08:12:54.812Z,99.90
2023-04-27T08:15:22.691Z,99.90
2023-04-27T08:17:51.969Z,99.90
2023-04-27T08:20:20.083Z,99.90
2023-04-27T08:22:47.985Z,99.90
2023-04-27T08:25:15.905Z,99.90
2023-04-27T08:27:43.923Z,99.90
2023-04-27T08:30:12.689Z,99.90
2023-04-27T08:32:40.988Z,99.90
2023-04-27T08:35:11.512Z,99.90
2023-04-27T08:37:39.958Z,99.90
2023-04-27T08:40:09.923Z,99.90
2023-04-27T08:42:37.940Z,99.90
2023-04-27T08:45:09.208Z,99.90
2023-04-27T08:47:43.197Z,99.80
2023-04-27T08:50:13.899Z,99.40
2023-04-27T08:52:44.514Z,98.80
2023-04-27T08:55:14.433Z,97.90
2023-04-27T08:57:54.315Z,97.90
2023-04-27T09:00:22.750Z,97.80
2023-04-27T09:02:50.959Z,97.30
2023-04-27T09:05:21.428Z,96.70
2023-04-27T09:07:59.626Z,96.60
2023-04-27T09:10:29.360Z,96.70
2023-04-27T09:12:59.099Z,96.00
2023-04-27T09:15:27.579Z,95.70
2023-04-27T09:17:56.942Z,95.20
2023-04-27T09:20:28.579Z,94.80
2023-04-27T09:22:58.016Z,93.80
2023-04-27T09:25:31.401Z,93.40
2023-04-27T09:28:01.894Z,92.70
2023-04-27T09:30:30.761Z,92.40
2023-04-27T09:33:01.058Z,92.10
2023-04-27T09:35:31.498Z,91.10
2023-04-27T09:38:00.467Z,90.90
2023-04-27T09:40:31.385Z,90.50
2023-04-27T09:43:02.046Z,90.20
2023-04-27T09:45:30.463Z,90.20
2023-04-27T09:47:59.659Z,89.30
2023-04-27T09:50:27.755Z,90.20
2023-04-27T09:52:57.190Z,88.40
2023-04-27T09:55:29.387Z,87.60
2023-04-27T09:58:10.545Z,86.60
2023-04-27T10:00:49.634Z,85.40
2023-04-27T10:03:23.546Z,84.40
2023-04-27T10:06:43.508Z,82.60
2023-04-27T10:09:14.803Z,81.00
2023-04-27T10:11:45.140Z,79.20
2023-04-27T10:14:19.256Z,78.90
2023-04-27T10:16:50.829Z,78.10
2023-04-27T10:19:19.031Z,77.10
2023-04-27T10:21:57.837Z,75.70
2023-04-27T10:24:40.831Z,75.80
2023-04-27T10:27:11.329Z,75.00
2023-04-27T10:29:41.777Z,73.10
2023-04-27T10:32:11.763Z,73.70
2023-04-27T10:34:41.268Z,74.70
2023-04-27T10:37:10.946Z,75.10
2023-04-27T10:39:48.605Z,74.10
2023-04-27T10:42:29.048Z,72.60
2023-04-27T10:44:59.004Z,71.60
2023-04-27T10:47:38.609Z,70.90
2023-04-27T10:50:08.809Z,69.80
2023-04-27T10:52:36.706Z,69.30
2023-04-27T10:55:20.230Z,69.10
2023-04-27T10:57:50.046Z,68.30
2023-04-27T11:00:25.246Z,67.60
2023-04-27T11:02:54.045Z,67.80
2023-04-27T11:05:29.154Z,66.70
2023-04-27T11:08:06.660Z,66.20
2023-04-27T11:10:36.964Z,65.90
2023-04-27T11:13:10.024Z,65.10
2023-04-27T11:15:45.941Z,64.30
2023-04-27T11:18:13.937Z,64.00
2023-04-27T11:20:41.800Z,64.00
2023-04-27T11:23:11.182Z,62.90
2023-04-27T11:25:40.500Z,62.90
2023-04-27T11:28:18.354Z,63.30
2023-04-27T11:30:46.328Z,62.40
2023-04-27T11:33:14.246Z,61.20
2023-04-27T11:35:42.613Z,59.70
2023-04-27T11:38:18.643Z,59.70
2023-04-27T11:40:48.470Z,59.80
2023-04-27T11:43:16.349Z,59.50
2023-04-27T11:45:44.940Z,60.80
2023-04-27T11:48:16.589Z,60.80
2023-04-27T11:50:48.387Z,60.40
2023-04-27T11:53:18.722Z,60.20
2023-04-27T11:55:53.513Z,59.70
2023-04-27T11:58:22.512Z,58.90
2023-04-27T12:00:50.842Z,58.00
2023-04-27T12:03:18.794Z,58.20
2023-04-27T12:05:51.207Z,58.50
2023-04-27T12:08:19.292Z,59.00
2023-04-27T12:10:48.691Z,58.20
2023-04-27T12:13:16.627Z,57.30
2023-04-27T12:15:44.755Z,56.60
2023-04-27T12:18:12.755Z,56.90
2023-04-27T12:20:41.492Z,56.40
2023-04-27T12:23:09.386Z,55.90
2023-04-27T12:25:37.543Z,56.10
2023-04-27T12:28:07.049Z,55.90
2023-04-27T12:30:36.286Z,56.10
2023-04-27T12:33:09.716Z,55.50
2023-04-27T12:35:39.064Z,55.60
2023-04-27T12:38:07.036Z,55.70
2023-04-27T12:40:35.080Z,54.80
2023-04-27T12:43:02.949Z,54.80
2023-04-27T12:45:32.202Z,54.80
2023-04-27T12:48:03.916Z,54.70
2023-04-27T12:50:33.160Z,54.30
2023-04-27T12:53:01.251Z,54.40
2023-04-27T12:55:33.070Z,54.80
2023-04-27T12:58:04.703Z,55.20
2023-04-27T13:00:34.438Z,55.60
2023-04-27T13:03:02.477Z,56.10
2023-04-27T13:05:32.014Z,56.60
2023-04-27T13:08:00.330Z,56.90
2023-04-27T13:10:29.170Z,56.60
2023-04-27T13:12:57.849Z,57.10
2023-04-27T13:15:25.790Z,57.30
2023-04-27T13:17:56.278Z,57.80
2023-04-27T13:20:24.233Z,58.10
2023-04-27T13:22:52.133Z,57.70
2023-04-27T13:25:20.728Z,58.00
2023-04-27T13:27:48.652Z,58.30
2023-04-27T13:30:16.751Z,58.10
2023-04-27T13:32:44.637Z,57.40
2023-04-27T13:35:14.266Z,57.10
2023-04-27T13:37:42.699Z,56.90
2023-04-27T13:40:12.522Z,56.80
2023-04-27T13:42:41.112Z,56.00
2023-04-27T13:45:09.898Z,55.30
2023-04-27T13:47:37.887Z,54.20
2023-04-27T13:50:07.825Z,54.00
2023-04-27T13:52:38.006Z,53.60
2023-04-27T13:55:07.123Z,53.60
2023-04-27T13:57:35.184Z,53.60
2023-04-27T14:00:03.577Z,53.70
2023-04-27T14:02:35.318Z,53.70
2023-04-27T14:05:03.369Z,53.40
2023-04-27T14:07:31.759Z,53.50
2023-04-27T14:10:01.205Z,54.40
2023-04-27T14:12:29.090Z,54.40
2023-04-27T14:14:58.434Z,54.80
2023-04-27T14:17:26.756Z,54.90
2023-04-27T14:19:54.716Z,55.50
2023-04-27T14:22:22.659Z,55.80
2023-04-27T14:24:50.603Z,56.10
2023-04-27T14:27:19.875Z,56.20
2023-04-27T14:29:47.866Z,56.70
2023-04-27T14:32:16.047Z,57.20
2023-04-27T14:34:44.022Z,57.20
2023-04-27T14:37:11.975Z,57.00
2023-04-27T14:39:39.947Z,57.10
2023-04-27T14:42:07.809Z,57.60
2023-04-27T14:44:37.170Z,57.40
2023-04-27T14:47:06.295Z,57.50
2023-04-27T14:49:34.236Z,57.60
2023-04-27T14:52:04.565Z,58.30
2023-04-27T14:54:32.494Z,58.60
2023-04-27T14:57:01.061Z,58.80
2023-04-27T14:59:29.024Z,59.00
2023-04-27T15:01:58.348Z,59.00
2023-04-27T15:04:26.802Z,58.90
2023-04-27T15:06:54.945Z,59.00
2023-04-27T15:09:22.837Z,59.10
2023-04-27T15:11:50.757Z,59.10
2023-04-27T15:14:18.686Z,59.20
2023-04-27T15:16:46.575Z,58.50
2023-04-27T15:19:16.485Z,58.50
2023-04-27T15:21:44.749Z,58.40
2023-04-27T15:24:12.632Z,58.20
2023-04-27T15:26:41.130Z,58.00
2023-04-27T15:29:09.002Z,58.30
2023-04-27T15:31:37.039Z,58.10
2023-04-27T15:34:05.042Z,58.30
2023-04-27T15:36:34.475Z,58.40
2023-04-27T15:39:02.342Z,58.30
2023-04-27T15:41:30.198Z,59.30
2023-04-27T15:43:58.160Z,59.50
2023-04-27T15:46:26.104Z,59.20
2023-04-27T15:48:54.034Z,59.00
2023-04-27T15:51:21.890Z,59.30
2023-04-27T15:53:51.117Z,59.60
2023-04-27T15:56:19.100Z,59.90
2023-04-27T15:58:47.078Z,60.00
2023-04-27T16:01:15.008Z,60.40
2023-04-27T16:03:43.104Z,59.90
2023-04-27T16:06:11.410Z,59.70
2023-04-27T16:08:39.318Z,59.10
2023-04-27T16:11:08.654Z,59.20
2023-04-27T16:13:36.570Z,58.40
2023-04-27T16:16:04.823Z,57.60
2023-04-27T16:18:32.714Z,56.40
2023-04-27T16:21:00.574Z,55.10
2023-04-27T16:23:28.485Z,53.70
2023-04-27T16:25:56.439Z,53.70
2023-04-27T16:28:25.734Z,53.50
2023-04-27T16:30:53.809Z,52.10
2023-04-27T16:33:21.800Z,52.60
2023-04-27T16:35:49.940Z,53.00
2023-04-27T16:38:18.047Z,53.00
2023-04-27T16:40:46.032Z,53.50
2023-04-27T16:43:13.868Z,54.10
2023-04-27T16:45:43.336Z,54.30
2023-04-27T16:48:11.990Z,54.80
2023-04-27T16:50:40.792Z,54.70
2023-04-27T16:53:10.862Z,54.60
2023-04-27T16:55:38.772Z,53.90
2023-04-27T16:58:07.555Z,53.90
2023-04-27T17:00:35.603Z,53.50
2023-04-27T17:03:05.113Z,53.20
2023-04-27T17:05:33.766Z,53.10
2023-04-27T17:08:04.915Z,52.30
2023-04-27T17:10:33.449Z,51.80
2023-04-27T17:13:01.434Z,51.30
2023-04-27T17:15:29.474Z,51.10
2023-04-27T17:17:59.549Z,51.60
2023-04-27T17:20:29.483Z,52.60
2023-04-27T17:22:57.995Z,53.50
2023-04-27T17:25:26.098Z,54.30
2023-04-27T17:27:54.093Z,55.80
2023-04-27T17:30:21.973Z,57.50
2023-04-27T17:32:50.201Z,58.60
2023-04-27T17:35:20.452Z,59.60
2023-04-27T17:37:49.867Z,60.40
2023-04-27T17:40:20.681Z,61.50
2023-04-27T17:42:48.923Z,63.20
2023-04-27T17:45:17.118Z,64.10
2023-04-27T17:47:45.030Z,65.10
2023-04-27T17:50:14.650Z,65.50
2023-04-27T17:52:42.554Z,66.20
2023-04-27T17:55:12.273Z,66.40
2023-04-27T17:57:40.768Z,66.80
2023-04-27T18:00:10.250Z,67.40
2023-04-27T18:02:39.471Z,67.50
2023-04-27T18:05:08.183Z,67.60
2023-04-27T18:07:37.237Z,68.10
2023-04-27T18:10:05.566Z,69.00
2023-04-27T18:12:34.984Z,70.10
2023-04-27T18:15:05.510Z,70.10
2023-04-27T18:17:34.939Z,70.10
2023-04-27T18:20:09.355Z,70.30
2023-04-27T18:22:39.811Z,70.80
2023-04-27T18:25:08.787Z,70.90
2023-04-27T18:27:38.279Z,70.80
2023-04-27T18:30:07.723Z,74.30
2023-04-27T18:32:36.049Z,76.80
2023-04-27T18:35:05.581Z,77.20
2023-04-27T18:37:33.507Z,79.10
2023-04-27T18:40:01.457Z,79.60
2023-04-27T18:42:29.379Z,80.70
2023-04-27T18:45:00.782Z,81.30
2023-04-27T18:47:29.116Z,82.80
2023-04-27T18:49:57.037Z,84.80
2023-04-27T18:52:24.920Z,86.80
2023-04-27T18:54:52.805Z,89.00
2023-04-27T18:57:21.013Z,90.60
2023-04-27T18:59:49.029Z,91.20
2023-04-27T19:02:18.233Z,91.90
2023-04-27T19:04:53.160Z,92.70
2023-04-27T19:07:29.954Z,92.80
2023-04-27T19:09:57.987Z,93.20
2023-04-27T19:12:26.029Z,93.90
2023-04-27T19:14:54.107Z,95.20
2023-04-27T19:17:23.485Z,96.30
2023-04-27T19:19:51.355Z,96.20
2023-04-27T19:22:19.332Z,97.20
2023-04-27T19:24:47.703Z,98.70
2023-04-27T19:27:15.820Z,99.70
2023-04-27T19:29:51.763Z,99.90
2023-04-27T19:32:20.283Z,99.90
2023-04-27T19:34:50.007Z,99.90
2023-04-27T19:37:18.199Z,99.90
2023-04-27T19:39:46.946Z,99.90
2023-04-27T19:42:15.206Z,99.90
2023-04-27T19:44:43.227Z,99.90
2023-04-27T19:47:11.786Z,99.90
2023-04-27T19:49:40.250Z,99.90
2023-04-27T19:52:09.614Z,99.90
2023-04-27T19:54:38.313Z,99.90
2023-04-27T19:57:06.586Z,99.90
2023-04-27T19:59:34.757Z,99.90
2023-04-27T20:02:03.099Z,99.90
2023-04-27T20:04:31.276Z,99.90
2023-04-27T20:06:59.390Z,99.90
2023-04-27T20:09:28.631Z,99.90
2023-04-27T20:11:56.634Z,99.90
2023-04-27T20:14:24.903Z,99.90
2023-04-27T20:16:53.002Z,99.90
2023-04-27T20:19:22.567Z,99.90
2023-04-27T20:21:50.483Z,99.90
2023-04-27T20:24:18.550Z,99.90
2023-04-27T20:26:47.812Z,99.90
2023-04-27T20:29:16.039Z,99.90
2023-04-27T20:31:44.894Z,99.90
2023-04-27T20:34:13.680Z,99.90
2023-04-27T20:36:44.264Z,99.90
2023-04-27T20:39:13.008Z,99.90
2023-04-27T20:41:41.897Z,99.90
2023-04-27T20:44:11.735Z,99.90
2023-04-27T20:46:39.732Z,99.90
2023-04-27T20:49:07.680Z,99.90
2023-04-27T20:51:35.810Z,99.90
2023-04-27T20:54:03.757Z,99.90
2023-04-27T20:56:32.860Z,99.90
2023-04-27T20:59:01.050Z,99.90
2023-04-27T21:01:30.335Z,99.90
2023-04-27T21:03:58.487Z,99.90
2023-04-27T21:06:26.668Z,99.90
2023-04-27T21:08:54.515Z,99.90
2023-04-27T21:11:22.528Z,99.90
2023-04-27T21:13:50.485Z,99.90
2023-04-27T21:16:18.757Z,99.90
2023-04-27T21:18:47.992Z,99.90
2023-04-27T21:21:15.871Z,99.90
2023-04-27T21:23:43.819Z,99.90
2023-04-27T21:26:12.089Z,99.90
2023-04-27T21:28:40.494Z,99.90
2023-04-27T21:31:08.481Z,99.90
2023-04-27T21:33:36.422Z,99.90
2023-04-27T21:36:06.333Z,99.90
2023-04-27T21:38:34.290Z,99.90
2023-04-27T21:41:02.113Z,99.90
2023-04-27T21:43:30.119Z,99.90
2023-04-27T21:45:58.416Z,99.90
2023-04-27T21:48:26.334Z,99.90
2023-04-27T21:50:54.199Z,99.90
2023-04-27T21:53:23.432Z,99.90
2023-04-27T21:55:51.656Z,99.90
2023-04-27T21:58:19.485Z,99.90
2023-04-27T22:00:48.647Z,99.90
2023-04-27T22:03:16.769Z,99.90
2023-04-27T22:05:45.239Z,99.90
2023-04-27T22:08:13.300Z,99.90
2023-04-27T22:10:42.546Z,99.90
2023-04-27T22:13:18.875Z,99.90
2023-04-27T22:15:48.119Z,99.90
2023-04-27T22:18:16.117Z,99.90
2023-04-27T22:20:44.386Z,99.90
2023-04-27T22:23:12.296Z,99.90
2023-04-27T22:25:42.604Z,99.90
2023-04-27T22:28:12.203Z,99.90
2023-04-27T22:30:41.498Z,99.90
2023-04-27T22:33:10.213Z,99.90
2023-04-27T22:35:38.507Z,99.90
2023-04-27T22:38:07.029Z,99.90
2023-04-27T22:40:34.926Z,99.90
2023-04-27T22:43:03.440Z,99.90
2023-04-27T22:45:33.447Z,99.90
2023-04-27T22:48:02.079Z,99.90
2023-04-27T22:50:30.811Z,99.90
2023-04-27T22:53:00.450Z,99.90
2023-04-27T22:55:28.808Z,99.90
2023-04-27T22:57:56.791Z,99.90
2023-04-27T23:00:25.403Z,99.90
2023-04-27T23:02:55.207Z,99.90
2023-04-27T23:05:23.263Z,99.90
2023-04-27T23:07:51.810Z,99.90
2023-04-27T23:10:19.723Z,99.90
2023-04-27T23:12:47.783Z,99.90
2023-04-27T23:15:16.414Z,99.90
2023-04-27T23:17:44.513Z,99.90
2023-04-27T23:20:27.351Z,99.90
2023-04-27T23:22:56.965Z,99.90
2023-04-27T23:25:25.051Z,99.90
2023-04-27T23:27:53.139Z,99.90
2023-04-27T23:30:21.781Z,99.90
2023-04-27T23:32:50.026Z,99.90
2023-04-27T23:35:19.652Z,99.90
2023-04-27T23:37:47.564Z,99.90
2023-04-27T23:40:15.616Z,99.90
2023-04-27T23:42:43.559Z,99.90
2023-04-27T23:45:12.229Z,99.90
2023-04-27T23:47:40.192Z,99.90
2023-04-27T23:50:08.984Z,99.90
2023-04-27T23:52:38.260Z,99.90
2023-04-27T23:55:07.177Z,99.90
2023-04-27T23:57:35.085Z,99.90
